Time;durP1;ratioP1;P1;durP2;ratioP2;P2;SDS_P1;SDS_P2;PMS_P1;PMS_P2;Temp;Humidity;BMP_temperature;BMP_pressure;BME280_temperature;BME280_humidity;BME280_pressure;Samples;Min_cycle;Max_cycle;Signal;HPM_P1;HPM_P2
2022/05/26 00:01:11;;;;;;;1.23;1.13;;;;;;;28.73;22.32;98321.31;5044099;28;20110;-75
2022/05/26 00:03:40;;;;;;;0.93;0.82;;;;;;;28.72;21.96;98316.13;5044497;28;20551;-77
2022/05/26 00:06:08;;;;;;;0.70;0.70;;;;;;;28.33;22.23;98322.38;5042390;28;20039;-77
2022/05/26 00:08:36;;;;;;;0.85;0.85;;;;;;;28.27;22.73;98322.16;5043219;28;20029;-77
2022/05/26 00:11:05;;;;;;;1.52;1.42;;;;;;;28.28;22.50;98322.97;5047322;28;20039;-77
2022/05/26 00:13:31;;;;;;;1.15;1.05;;;;;;;28.08;22.72;98326.84;5050737;28;20033;-77
2022/05/26 00:15:57;;;;;;;1.00;1.00;;;;;;;28.02;22.45;98327.88;5044475;28;20033;-77
2022/05/26 00:18:23;;;;;;;1.55;1.45;;;;;;;28.02;22.95;98322.25;5031378;28;20036;-77
2022/05/26 00:20:49;;;;;;;1.40;1.30;;;;;;;28.08;23.02;98321.22;5047786;28;20051;-77
2022/05/26 00:23:15;;;;;;;1.45;1.33;;;;;;;28.17;22.64;98322.56;5030920;28;20040;-77
2022/05/26 00:25:41;;;;;;;1.30;1.20;;;;;;;28.24;22.32;98316.66;5041041;28;20061;-77
2022/05/26 00:28:08;;;;;;;1.23;1.13;;;;;;;28.18;22.73;98322.09;5039615;28;20582;-77
2022/05/26 00:30:37;;;;;;;1.50;1.40;;;;;;;28.23;23.24;98315.06;5038414;28;22249;-77
2022/05/26 00:33:04;;;;;;;1.65;1.55;;;;;;;28.37;22.84;98314.56;5034531;28;20040;-77
2022/05/26 00:35:34;;;;;;;1.33;1.23;;;;;;;28.41;22.41;98318.03;5039054;28;20496;-77
2022/05/26 00:38:02;;;;;;;1.87;1.77;;;;;;;28.44;22.52;98325.63;5040603;28;20039;-77
2022/05/26 00:40:28;;;;;;;1.90;1.42;;;;;;;28.23;22.63;98323.53;5025984;28;20377;-77
2022/05/26 00:42:54;;;;;;;1.50;1.33;;;;;;;28.27;22.21;98321.38;5038741;28;20120;-77
2022/05/26 00:45:20;;;;;;;1.60;1.50;;;;;;;28.33;22.80;98323.19;5033831;28;20033;-77
2022/05/26 00:47:47;;;;;;;1.58;1.35;;;;;;;28.43;22.36;98333.28;5037341;28;20508;-77
2022/05/26 00:50:28;;;;;;;1.42;1.10;;;;;;;28.36;21.97;98330.72;5039469;28;20067;-77
2022/05/26 00:53:20;;;;;;;1.10;1.00;;;;;;;27.95;22.24;98326.06;5038560;28;20040;-77
2022/05/26 00:56:03;;;;;;;1.02;0.98;;;;;;;27.97;22.36;98323.56;5043221;28;20556;-77
2022/05/26 00:58:35;;;;;;;0.90;0.90;;;;;;;28.03;22.32;98320.97;5035618;28;20096;-77
2022/05/26 01:01:03;;;;;;;1.08;0.90;;;;;;;28.08;21.92;98326.84;5036659;28;20044;-77
2022/05/26 01:03:48;;;;;;;1.67;1.40;;;;;;;27.93;22.25;98320.09;5026502;28;20436;-77
2022/05/26 01:06:31;;;;;;;1.15;0.85;;;;;;;28.14;21.94;98323.44;5037733;28;20103;-77
2022/05/26 01:09:04;;;;;;;0.70;0.70;;;;;;;27.92;22.07;98326.19;5025653;28;20032;-77
2022/05/26 01:11:33;;;;;;;1.17;1.08;;;;;;;27.81;22.00;98325.75;5038747;28;20453;-77
2022/05/26 01:14:05;;;;;;;0.93;0.88;;;;;;;27.81;22.29;98328.56;5035600;28;20044;-77
2022/05/26 01:16:48;;;;;;;1.30;0.82;;;;;;;27.76;22.27;98329.13;5034518;28;20035;-77
2022/05/26 01:19:20;;;;;;;1.65;0.93;;;;;;;27.79;21.99;98331.84;5038615;28;20696;-77
2022/05/26 01:21:55;;;;;;;0.80;0.63;;;;;;;27.94;21.50;98324.47;5036427;28;20029;-77
2022/05/26 01:24:34;;;;;;;1.15;1.05;;;;;;;28.02;21.50;98319.41;5036968;28;20495;-77
2022/05/26 01:27:03;;;;;;;1.77;1.02;;;;;;;27.96;21.99;98329.66;5040816;28;20029;-77
2022/05/26 01:29:38;;;;;;;1.25;1.15;;;;;;;28.04;21.70;98331.84;5037420;28;20099;-77
2022/05/26 01:32:13;;;;;;;1.05;1.00;;;;;;;28.08;21.78;98336.59;5036214;28;20045;-77
2022/05/26 01:35:12;;;;;;;0.90;0.90;;;;;;;28.11;21.70;98341.28;5023861;28;20086;-77
2022/05/26 01:38:03;;;;;;;0.85;0.85;;;;;;;28.12;21.29;98335.22;5036540;28;20040;-77
2022/05/26 01:40:32;;;;;;;0.70;0.70;;;;;;;28.04;21.19;98336.69;5037905;28;20059;-77
2022/05/26 01:43:23;;;;;;;0.75;0.73;;;;;;;27.89;21.55;98336.34;5041410;28;20041;-76
2022/05/26 01:46:08;;;;;;;0.98;0.90;;;;;;;27.85;21.49;98332.06;5038298;28;20396;-77
2022/05/26 01:48:42;;;;;;;0.70;0.70;;;;;;;27.61;22.04;98342.91;5040631;28;20120;-77
2022/05/26 01:51:33;;;;;;;0.75;0.68;;;;;;;27.59;22.06;98336.94;5041409;28;20548;-77
2022/05/26 01:54:22;;;;;;;0.90;0.70;;;;;;;27.57;21.86;98341.44;5044694;28;20108;-76
2022/05/26 01:57:04;;;;;;;0.60;0.60;;;;;;;27.45;21.91;98343.03;5043207;28;20436;-76
2022/05/26 01:59:50;;;;;;;1.13;0.80;;;;;;;27.30;22.30;98348.31;5039124;28;20060;-77
2022/05/26 02:02:24;;;;;;;0.70;0.70;;;;;;;27.35;22.13;98349.78;5039587;28;20430;-77
2022/05/26 02:04:58;;;;;;;1.20;1.10;;;;;;;27.48;21.94;98367.50;5041308;28;20136;-77
2022/05/26 02:07:45;;;;;;;1.05;0.95;;;;;;;27.58;21.78;98360.75;5040232;28;24059;-77
2022/05/26 02:10:28;;;;;;;0.85;0.85;;;;;;;27.72;21.63;98362.34;5040567;28;20037;-77
2022/05/26 02:13:17;;;;;;;0.80;0.80;;;;;;;27.83;21.50;98357.13;5041006;28;20033;-77
2022/05/26 02:15:50;;;;;;;0.57;0.55;;;;;;;28.04;21.65;98362.09;5037420;28;20029;-77
2022/05/26 02:18:21;;;;;;;0.68;0.68;;;;;;;27.87;21.47;98352.16;5042543;28;20060;-76
2022/05/26 02:20:58;;;;;;;0.63;0.63;;;;;;;27.88;21.27;98353.75;5034759;28;20041;-76
2022/05/26 02:23:35;;;;;;;0.40;0.40;;;;;;;27.89;21.01;98349.69;5037626;28;20034;-77
2022/05/26 02:26:02;;;;;;;0.82;0.50;;;;;;;27.88;21.47;98348.09;5040036;28;20042;-76
2022/05/26 02:29:51;;;;;;;1.25;0.95;;;;;;;27.82;21.43;98355.56;5039031;28;20116;-77
2022/05/26 02:31:22;;;;;;;1.10;1.00;;;;;;;27.72;21.46;98351.03;5037916;28;20044;-76
2022/05/26 02:33:49;;;;;;;1.33;0.70;;;;;;;27.78;21.33;98352.03;5035198;28;20061;-76
2022/05/26 02:36:16;;;;;;;0.75;0.60;;;;;;;27.71;21.30;98363.56;5039667;28;20533;-76
2022/05/26 02:38:42;;;;;;;0.85;0.80;;;;;;;27.68;21.32;98358.84;5036749;28;20056;-76
2022/05/26 02:41:08;;;;;;;0.70;0.60;;;;;;;27.55;21.62;98360.84;5040651;28;20442;-76
2022/05/26 02:43:34;;;;;;;0.85;0.70;;;;;;;27.41;22.00;98362.09;5035020;28;20119;-76
2022/05/26 02:46:43;;;;;;;0.90;0.70;;;;;;;27.39;21.80;98359.75;5036462;28;21179;-76
2022/05/26 02:49:42;;;;;;;2.05;0.73;;;;;;;27.64;21.53;98356.13;5040322;28;20026;-76
2022/05/26 02:52:23;;;;;;;0.70;0.50;;;;;;;27.35;21.83;98352.59;5039499;28;20070;-76
2022/05/26 02:55:07;;;;;;;;;;;;;;;27.40;21.89;98361.31;5039643;28;20037;-76
2022/05/26 02:57:50;;;;;;;1.00;0.90;;;;;;;27.65;21.75;98356.91;5036689;28;19913;-76
2022/05/26 03:00:24;;;;;;;0.60;0.60;;;;;;;27.89;21.53;98370.22;5035915;28;20030;-76
2022/05/26 03:03:07;;;;;;;0.75;0.75;;;;;;;27.96;21.24;98355.06;5036474;28;20063;-76
2022/05/26 03:06:06;;;;;;;0.70;0.47;;;;;;;27.85;21.14;98354.63;5037093;28;20025;-76
2022/05/26 03:08:37;;;;;;;1.35;0.60;;;;;;;27.57;22.19;98369.66;5032173;28;20036;-76
2022/05/26 03:11:05;;;;;;;;;;;;;;;27.80;21.95;98360.84;5042575;28;20025;-76
2022/05/26 03:13:31;;;;;;;1.08;0.93;;;;;;;28.24;21.07;98359.78;5036132;28;19921;-76
2022/05/26 03:15:57;;;;;;;1.08;0.77;;;;;;;28.54;20.88;98358.34;5034552;28;20045;-76
2022/05/26 03:18:23;;;;;;;0.77;0.77;;;;;;;28.36;21.32;98361.00;5036199;28;20032;-76
2022/05/26 03:20:49;;;;;;;1.05;0.77;;;;;;;28.47;21.43;98353.72;5039626;28;20044;-76
2022/05/26 03:23:15;;;;;;;0.57;0.57;;;;;;;28.30;21.00;98357.19;5037716;28;20052;-76
2022/05/26 03:25:48;;;;;;;1.02;0.88;;;;;;;28.06;22.13;98351.13;5036538;28;20508;-76
2022/05/26 03:28:14;;;;;;;0.73;0.70;;;;;;;27.96;22.31;98355.84;5037870;28;20033;-76
2022/05/26 03:30:40;;;;;;;0.68;0.60;;;;;;;27.94;22.57;98354.72;5035987;28;20029;-76
2022/05/26 03:33:06;;;;;;;0.85;0.65;;;;;;;28.58;22.75;98354.16;5036881;28;20432;-76
2022/05/26 03:41:02;;;;;;;0.73;0.70;;;;;;;29.15;21.42;98363.38;5028319;28;20059;-76
2022/05/26 03:43:32;;;;;;;0.73;0.50;;;;;;;29.11;21.64;98357.06;5035759;28;20048;-77
2022/05/26 03:46:00;;;;;;;0.50;0.50;;;;;;;28.83;21.86;98350.44;5038811;28;20485;-76
2022/05/26 03:48:27;;;;;;;1.65;0.60;;;;;;;28.98;21.68;98356.34;5038719;28;20041;-76
2022/05/26 03:50:54;;;;;;;1.65;0.60;;;;;;;29.20;21.55;98354.31;5038424;28;20179;-76
2022/05/26 03:53:20;;;;;;;0.57;0.57;;;;;;;29.82;22.44;98364.41;5040389;28;20167;-76
2022/05/26 03:55:46;;;;;;;0.40;0.40;;;;;;;30.07;22.18;98361.31;5039193;28;20107;-76
2022/05/26 03:58:12;;;;;;;0.65;0.52;;;;;;;30.12;22.67;98359.91;5040262;28;20040;-77
2022/05/26 04:00:39;;;;;;;0.50;0.50;;;;;;;30.15;22.94;98358.19;5039434;28;20044;-77
2022/05/26 04:03:05;;;;;;;0.57;0.57;;;;;;;30.22;23.12;98361.53;5037655;28;20176;-77
2022/05/26 04:05:31;;;;;;;0.65;0.63;;;;;;;30.14;23.44;98362.28;5039567;28;20037;-77
2022/05/26 04:07:57;;;;;;;0.60;0.60;;;;;;;30.18;24.00;98365.75;5042229;28;20029;-77
2022/05/26 04:10:24;;;;;;;0.85;0.75;;;;;;;30.21;23.87;98368.44;5038023;28;20166;-77
2022/05/26 04:12:50;;;;;;;0.85;0.65;;;;;;;30.34;24.42;98366.25;5040250;28;20115;-77
2022/05/26 04:15:17;;;;;;;0.70;0.70;;;;;;;30.62;24.03;98367.09;5038372;28;20029;-77
2022/05/26 04:17:44;;;;;;;0.75;0.68;;;;;;;30.94;23.72;98377.03;5038216;28;20075;-77
2022/05/26 04:20:12;;;;;;;0.63;0.55;;;;;;;31.08;23.75;98365.03;5033745;28;20052;-77
2022/05/26 04:22:39;;;;;;;0.90;0.73;;;;;;;31.21;23.57;98369.25;5041398;28;20048;-77
2022/05/26 04:25:06;;;;;;;1.17;0.70;;;;;;;31.22;23.40;98367.22;5038468;28;20472;-78
2022/05/26 04:27:33;;;;;;;0.50;0.50;;;;;;;31.15;23.68;98364.72;5034744;28;20400;-77
2022/05/26 04:30:01;;;;;;;0.50;0.50;;;;;;;31.17;23.59;98368.66;5042821;28;20061;-77
2022/05/26 04:32:27;;;;;;;1.75;0.75;;;;;;;31.14;24.11;98365.97;5037194;28;20040;-77
2022/05/26 04:34:54;;;;;;;1.70;0.70;;;;;;;31.22;24.43;98370.06;5037982;28;20112;-77
2022/05/26 04:37:23;;;;;;;0.50;0.50;;;;;;;31.41;24.15;98371.59;5036822;28;20036;-76
2022/05/26 04:39:50;;;;;;;1.05;0.50;;;;;;;31.54;24.54;98363.69;5036212;28;20041;-76
2022/05/26 04:42:17;;;;;;;1.27;0.57;;;;;;;31.74;24.39;98365.97;5039471;28;20105;-76
2022/05/26 04:44:44;;;;;;;0.57;0.57;;;;;;;31.72;24.80;98362.81;5036032;28;20037;-75
2022/05/26 04:47:12;;;;;;;0.50;0.50;;;;;;;32.05;24.26;98361.59;5037116;28;21016;-76
2022/05/26 04:49:39;;;;;;;0.60;0.60;;;;;;;32.06;24.43;98360.31;5041640;28;20052;-77
2022/05/26 04:52:14;;;;;;;0.57;0.55;;;;;;;32.05;24.17;98372.94;5039283;28;20036;-76
2022/05/26 04:54:44;;;;;;;0.70;0.45;;;;;;;31.95;24.42;98365.69;5038683;28;20178;-76
2022/05/26 04:57:11;;;;;;;0.45;0.45;;;;;;;32.05;24.40;98363.63;5038787;28;20099;-75
2022/05/26 04:59:38;;;;;;;0.98;0.57;;;;;;;32.13;23.82;98358.38;5036961;28;20408;-76
2022/05/26 05:02:04;;;;;;;0.47;0.45;;;;;;;32.22;24.32;98366.84;5035586;28;20086;-77
2022/05/26 05:04:31;;;;;;;0.52;0.52;;;;;;;32.37;25.31;98359.19;5037941;28;20039;-75
2022/05/26 05:06:57;;;;;;;0.75;0.50;;;;;;;32.46;24.70;98359.13;5038623;28;20033;-74
2022/05/26 05:09:24;;;;;;;0.63;0.40;;;;;;;32.48;24.41;98350.88;5045868;28;20499;-74
2022/05/26 05:11:50;;;;;;;3.20;0.35;;;;;;;32.44;23.63;98365.25;5045835;28;20025;-74
2022/05/26 05:14:17;;;;;;;0.40;0.40;;;;;;;32.34;24.05;98368.66;5042910;28;20044;-74
2022/05/26 05:16:45;;;;;;;0.60;0.38;;;;;;;32.39;24.24;98373.69;5040549;28;20478;-75
2022/05/26 05:19:14;;;;;;;0.20;0.20;;;;;;;32.75;24.88;98362.06;5040759;28;20033;-74
2022/05/26 05:21:55;;;;;;;0.28;0.28;;;;;;;33.24;24.57;98373.63;5037757;28;20061;-75
2022/05/26 05:24:41;;;;;;;1.83;0.38;;;;;;;33.99;23.54;98368.19;5045021;28;20735;-74
2022/05/26 05:27:18;;;;;;;0.30;0.20;;;;;;;34.48;22.28;98360.84;5045132;28;20033;-75
2022/05/26 05:29:48;;;;;;;0.20;0.20;;;;;;;34.73;21.87;98357.28;5042385;28;20041;-74
2022/05/26 05:32:22;;;;;;;0.70;0.40;;;;;;;34.61;21.79;98356.38;5039248;28;20037;-74
2022/05/26 05:34:54;;;;;;;0.20;0.20;;;;;;;34.57;21.51;98366.44;5042117;28;20690;-76
2022/05/26 05:37:20;;;;;;;0.28;0.28;;;;;;;34.30;23.11;98367.63;5038088;28;20505;-75
2022/05/26 05:39:46;;;;;;;0.22;0.20;;;;;;;34.31;22.85;98359.84;5044634;28;20056;-76
2022/05/26 05:42:12;;;;;;;0.20;0.20;;;;;;;34.43;23.06;98361.56;5046564;28;21402;-76
2022/05/26 05:44:39;;;;;;;0.20;0.20;;;;;;;34.71;23.64;98351.31;5039607;28;20090;-75
2022/05/26 05:47:05;;;;;;;0.20;0.20;;;;;;;34.81;22.30;98355.56;5035934;28;20045;-77
2022/05/26 05:49:33;;;;;;;0.28;0.28;;;;;;;34.77;23.08;98348.53;5035725;28;20033;-77
2022/05/26 05:52:12;;;;;;;0.30;0.25;;;;;;;34.79;23.93;98343.09;5025021;28;20033;-76
2022/05/26 05:54:39;;;;;;;0.20;0.20;;;;;;;35.23;22.58;98347.25;5045153;28;20029;-76
2022/05/26 05:57:06;;;;;;;0.20;0.20;;;;;;;35.22;22.76;98347.72;5038045;28;20028;-76
2022/05/26 05:59:32;;;;;;;0.20;0.20;;;;;;;35.42;23.26;98339.09;5038898;28;20040;-76
2022/05/26 06:01:59;;;;;;;0.17;0.17;;;;;;;35.64;22.33;98347.09;5045642;28;20091;-76
2022/05/26 06:04:25;;;;;;;0.13;0.13;;;;;;;35.43;21.46;98343.50;5040335;28;20037;-76
2022/05/26 06:06:51;;;;;;;0.10;0.10;;;;;;;35.41;21.97;98351.78;5041827;28;20061;-76
2022/05/26 06:09:20;;;;;;;0.13;0.13;;;;;;;34.87;21.24;98349.94;5043479;28;20113;-76
2022/05/26 06:11:47;;;;;;;0.20;0.20;;;;;;;34.88;20.81;98351.50;5037804;28;20481;-76
2022/05/26 06:14:13;;;;;;;0.57;0.30;;;;;;;34.75;22.15;98355.50;5042477;28;20065;-76
2022/05/26 06:16:40;;;;;;;0.57;0.20;;;;;;;34.88;22.62;98354.34;5044496;28;20493;-76
2022/05/26 06:19:06;;;;;;;0.70;0.30;;;;;;;34.95;22.68;98354.69;5041055;28;20056;-76
2022/05/26 06:21:35;;;;;;;0.30;0.30;;;;;;;35.00;21.67;98358.91;5040161;28;20500;-76
2022/05/26 06:24:01;;;;;;;0.20;0.20;;;;;;;35.03;21.37;98358.69;5043178;28;20041;-77
2022/05/26 06:26:29;;;;;;;0.20;0.20;;;;;;;35.02;21.20;98359.22;5039149;28;20033;-76
2022/05/26 06:37:13;;;;;;;0.30;0.22;;;;;;;34.73;22.21;98354.44;5041493;28;20048;-76
2022/05/26 06:37:13;;;;;;;0.20;0.20;;;;;;;34.59;21.99;98358.94;5042046;28;20186;-77
2022/05/26 06:39:40;;;;;;;0.55;0.20;;;;;;;34.86;22.34;98359.78;5041380;28;20064;-77
2022/05/26 06:42:07;;;;;;;0.32;0.22;;;;;;;35.34;21.98;98361.59;5023700;28;20026;-77
2022/05/26 06:44:45;;;;;;;2.20;0.25;;;;;;;35.43;21.62;98364.28;5044162;28;20029;-77
2022/05/26 06:47:15;;;;;;;0.20;0.20;;;;;;;34.92;22.61;98363.47;5040811;28;20469;-76
2022/05/26 06:49:42;;;;;;;1.10;0.40;;;;;;;34.71;22.31;98363.50;5039557;28;20045;-77
2022/05/26 06:52:09;;;;;;;0.60;0.30;;;;;;;34.29;21.60;98365.25;5023831;28;20090;-77
2022/05/26 06:54:38;;;;;;;0.90;0.38;;;;;;;34.14;22.22;98362.47;5040494;28;20493;-76
2022/05/26 06:57:06;;;;;;;0.73;0.40;;;;;;;33.31;23.42;98359.00;5040567;28;20548;-76
2022/05/26 06:59:33;;;;;;;0.40;0.40;;;;;;;33.92;23.21;98362.91;5040262;28;20029;-75
2022/05/26 07:01:59;;;;;;;0.68;0.40;;;;;;;33.54;22.26;98363.06;5042864;28;20480;-75
2022/05/26 07:04:26;;;;;;;0.68;0.57;;;;;;;33.53;24.10;98372.09;5040488;28;20116;-76
2022/05/26 07:06:53;;;;;;;0.40;0.40;;;;;;;34.13;22.95;98365.81;5037082;28;20389;-76
2022/05/26 07:09:24;;;;;;;0.90;0.30;;;;;;;34.31;22.24;98369.16;5040122;28;20033;-76
2022/05/26 07:11:51;;;;;;;;;;;;;;;34.02;22.33;98366.41;5038811;28;20029;-75
2022/05/26 07:14:19;;;;;;;0.40;0.40;;;;;;;34.27;22.25;98374.31;5042025;28;19967;-75
2022/05/26 07:16:45;;;;;;;0.47;0.30;;;;;;;34.53;22.57;98377.28;5037682;28;20033;-75
2022/05/26 07:19:16;;;;;;;0.40;0.40;;;;;;;33.77;21.71;98373.53;5040772;28;20493;-76
2022/05/26 07:21:43;;;;;;;0.40;0.40;;;;;;;34.20;22.87;98377.56;5036965;28;20030;-77
2022/05/26 07:24:10;;;;;;;3.50;0.40;;;;;;;34.87;22.31;98370.69;5040348;28;20400;-76
2022/05/26 07:26:37;;;;;;;1.38;0.40;;;;;;;35.31;22.44;98384.69;5040239;28;20022;-76
2022/05/26 07:29:03;;;;;;;1.05;0.30;;;;;;;35.50;22.43;98379.41;5036453;28;20038;-77
2022/05/26 07:31:30;;;;;;;0.82;0.60;;;;;;;35.13;20.99;98373.59;5037962;28;20113;-76
2022/05/26 07:33:56;;;;;;;0.45;0.45;;;;;;;35.20;20.94;98384.56;5039508;28;20038;-76
2022/05/26 07:42:01;;;;;;;0.50;0.40;;;;;;;32.43;22.84;98394.19;5043514;28;20087;-78
2022/05/26 07:44:29;;;;;;;0.93;0.60;;;;;;;32.44;22.87;98385.16;5043200;28;20505;-77
2022/05/26 07:46:56;;;;;;;0.50;0.50;;;;;;;33.18;23.29;98387.00;5037456;28;20115;-77
2022/05/26 07:49:23;;;;;;;1.95;0.52;;;;;;;33.80;21.46;98388.84;5041904;28;20499;-77
2022/05/26 07:51:49;;;;;;;0.85;0.47;;;;;;;34.43;21.35;98390.06;5045405;28;20017;-76
2022/05/26 07:54:15;;;;;;;2.63;0.55;;;;;;;34.57;20.60;98392.88;5035550;28;20117;-77
2022/05/26 07:56:41;;;;;;;0.43;0.40;;;;;;;34.67;21.69;98387.84;5042625;28;20033;-78
2022/05/26 07:59:09;;;;;;;0.90;0.60;;;;;;;34.30;21.47;98390.44;5041176;28;20048;-77
2022/05/26 08:01:36;;;;;;;0.60;0.50;;;;;;;33.95;22.61;98390.41;5037692;28;20041;-79
2022/05/26 08:04:05;;;;;;;0.68;0.50;;;;;;;34.28;21.62;98395.06;5044407;28;20033;-78
2022/05/26 08:06:31;;;;;;;0.93;0.60;;;;;;;33.41;22.36;98388.16;5028697;28;20037;-78
2022/05/26 08:08:58;;;;;;;1.25;0.60;;;;;;;34.03;21.80;98393.63;5041288;28;20033;-78
2022/05/26 08:11:24;;;;;;;1.90;0.40;;;;;;;34.17;22.02;98395.66;5041112;28;20036;-78
2022/05/26 08:13:50;;;;;;;0.63;0.40;;;;;;;34.45;21.77;98394.00;5039110;28;20565;-79
2022/05/26 08:16:16;;;;;;;0.57;0.50;;;;;;;34.52;20.32;98399.31;5043210;28;20044;-79
2022/05/26 08:18:44;;;;;;;0.63;0.63;;;;;;;34.56;21.80;98397.03;5041804;28;20075;-79
2022/05/26 08:21:13;;;;;;;0.77;0.30;;;;;;;34.83;21.29;98395.00;5043644;28;20032;-79
2022/05/26 08:23:39;;;;;;;0.30;0.30;;;;;;;34.53;19.98;98392.34;5045336;28;20079;-79
2022/05/26 08:26:06;;;;;;;0.55;0.40;;;;;;;34.73;21.04;98392.31;5042375;28;21263;-79
2022/05/26 08:28:32;;;;;;;0.95;0.40;;;;;;;34.51;20.46;98397.72;5046702;28;20109;-79
2022/05/26 08:30:59;;;;;;;0.73;0.47;;;;;;;34.19;21.78;98390.28;5044870;28;20032;-79
2022/05/26 08:33:26;;;;;;;0.63;0.40;;;;;;;34.26;21.02;98391.91;5040569;28;20064;-79
2022/05/26 08:36:03;;;;;;;0.50;0.30;;;;;;;34.70;21.16;98387.59;5038937;28;20481;-79
2022/05/26 08:38:29;;;;;;;0.40;0.40;;;;;;;34.63;20.03;98388.06;5035855;28;20029;-79
2022/05/26 08:40:56;;;;;;;0.68;0.40;;;;;;;34.79;20.88;98394.47;5025419;28;20041;-79
2022/05/26 08:43:29;;;;;;;0.30;0.30;;;;;;;34.87;20.63;98392.75;5030399;28;20078;-80
2022/05/26 08:45:55;;;;;;;0.30;0.30;;;;;;;35.03;20.24;98386.47;5041392;28;20139;-80
2022/05/26 08:48:59;;;;;;;0.50;0.40;;;;;;;34.61;20.63;98393.47;5044978;28;20056;-80
2022/05/26 08:51:39;;;;;;;0.40;0.40;;;;;;;34.33;19.52;98394.34;5012364;28;20165;-80
2022/05/26 08:54:10;;;;;;;1.92;0.40;;;;;;;34.03;20.13;98393.63;5048309;28;20508;-79
2022/05/26 08:56:38;;;;;;;;;;;;;;;34.27;19.15;98402.03;5042921;28;20104;-79
2022/05/26 08:59:10;;;;;;;0.93;0.30;;;;;;;34.07;22.45;98394.25;5043631;28;20416;-79
2022/05/26 09:01:37;;;;;;;0.50;0.40;;;;;;;33.41;20.71;98388.16;5048136;28;20116;-78
2022/05/26 09:04:04;;;;;;;1.30;0.43;;;;;;;33.52;20.22;98388.34;5045989;28;20385;-79
2022/05/26 09:12:55;;;;;;;0.30;0.30;;;;;;;33.89;20.59;98389.53;5046462;28;20144;-78
2022/05/26 09:14:55;;;;;;;2.65;0.40;;;;;;;34.17;17.72;98392.81;5041189;28;20087;-78
2022/05/26 09:17:22;;;;;;;0.35;0.30;;;;;;;33.99;19.67;98387.34;5040935;28;20449;-78
2022/05/26 09:19:50;;;;;;;0.52;0.30;;;;;;;34.37;18.91;98390.00;5040107;28;20111;-77
2022/05/26 09:22:45;;;;;;;0.80;0.22;;;;;;;34.06;20.70;98379.19;5041430;28;20037;-77
2022/05/26 09:25:35;;;;;;;2.05;0.60;;;;;;;33.49;20.43;98377.19;5039796;28;20777;-76
2022/05/26 09:28:01;;;;;;;0.63;0.30;;;;;;;34.10;18.99;98376.13;5044130;28;20064;-76
2022/05/26 09:30:30;;;;;;;0.20;0.20;;;;;;;34.30;19.91;98379.03;5043224;28;20025;-76
2022/05/26 09:32:57;;;;;;;0.30;0.25;;;;;;;34.12;17.20;98384.19;5045508;28;20038;-77
2022/05/26 09:35:28;;;;;;;0.20;0.20;;;;;;;34.08;17.12;98384.41;5044029;28;20456;-77
2022/05/26 09:37:57;;;;;;;7.25;0.95;;;;;;;34.13;17.76;98383.69;5048863;28;20111;-77
2022/05/26 09:40:32;;;;;;;0.60;0.30;;;;;;;33.91;19.23;98386.19;5041940;28;20060;-77
2022/05/26 09:43:20;;;;;;;1.20;0.28;;;;;;;34.02;18.22;98381.44;5040699;28;20040;-77
2022/05/26 09:45:49;;;;;;;0.20;0.20;;;;;;;34.47;19.04;98382.09;5043036;28;20032;-78
2022/05/26 09:48:30;;;;;;;0.45;0.15;;;;;;;34.97;17.13;98379.88;5043331;28;20041;-77
2022/05/26 09:51:21;;;;;;;0.13;0.13;;;;;;;34.99;16.53;98377.28;5040748;28;20484;-77
2022/05/26 09:53:51;;;;;;;2.72;0.25;;;;;;;34.38;18.44;98390.81;5041122;28;20055;-78
2022/05/26 09:56:40;;;;;;;0.50;0.13;;;;;;;34.45;19.31;98390.38;5038190;28;21242;-78
2022/05/26 09:59:28;;;;;;;0.75;0.20;;;;;;;34.10;17.55;98376.13;5042990;28;20040;-78
2022/05/26 10:02:05;;;;;;;2.65;0.60;;;;;;;33.78;17.64;98365.78;5026182;28;20037;-77
2022/05/26 10:04:37;;;;;;;0.30;0.17;;;;;;;34.60;17.19;98374.78;5041005;28;20037;-77
2022/05/26 10:07:35;;;;;;;0.30;0.30;;;;;;;34.65;16.52;98368.38;5045644;28;20035;-79
2022/05/26 10:10:42;;;;;;;1.40;0.25;;;;;;;34.34;17.41;98373.88;5039998;28;20539;-79
2022/05/26 10:13:27;;;;;;;0.20;0.20;;;;;;;34.75;18.24;98372.63;5032333;28;20045;-79
2022/05/26 10:15:59;;;;;;;0.93;0.30;;;;;;;34.64;17.29;98368.84;5020563;28;20028;-79
2022/05/26 10:18:51;;;;;;;0.20;0.20;;;;;;;34.77;17.23;98372.13;5043385;28;20075;-77
2022/05/26 10:21:47;;;;;;;0.30;0.20;;;;;;;34.02;16.54;98377.81;5040115;28;20538;-77
2022/05/26 10:24:28;;;;;;;1.83;0.20;;;;;;;33.81;16.55;98374.13;5036288;28;20044;-77
2022/05/26 10:27:01;;;;;;;0.30;0.20;;;;;;;34.26;18.37;98380.53;5044500;28;20068;-78
2022/05/26 10:29:31;;;;;;;0.28;0.20;;;;;;;33.93;16.66;98383.63;5036382;28;20095;-77
2022/05/26 10:32:14;;;;;;;4.72;0.25;;;;;;;33.68;16.92;98379.34;5041838;28;20052;-78
2022/05/26 10:34:58;;;;;;;0.52;0.10;;;;;;;34.05;16.64;98376.84;5037520;28;20035;-78
2022/05/26 10:37:52;;;;;;;0.35;0.20;;;;;;;34.17;17.43;98378.56;5037491;28;20606;-78
2022/05/26 10:40:34;;;;;;;1.05;0.30;;;;;;;34.45;15.65;98368.31;5040732;28;20091;-77
2022/05/26 10:43:13;;;;;;;1.10;0.30;;;;;;;34.81;16.97;98364.13;5025249;28;20067;-77
2022/05/26 10:45:47;;;;;;;0.75;0.20;;;;;;;35.28;16.49;98369.34;5041812;28;20033;-78
2022/05/26 10:48:34;;;;;;;0.50;0.20;;;;;;;35.24;16.48;98371.63;5041812;28;20055;-78
2022/05/26 10:51:12;;;;;;;0.40;0.20;;;;;;;35.12;15.86;98360.63;5040639;28;20045;-78
2022/05/26 10:53:56;;;;;;;0.93;0.28;;;;;;;34.65;16.21;98365.53;5039405;28;20132;-77
2022/05/26 10:56:36;;;;;;;0.20;0.10;;;;;;;35.04;18.18;98373.75;5039148;28;20083;-77
2022/05/26 10:59:05;;;;;;;;;;;;;;;36.00;15.89;98366.34;5039330;28;20103;-77
2022/05/26 11:01:42;;;;;;;1.90;0.20;;;;;;;36.21;16.46;98367.00;5039418;28;19917;-77
2022/05/26 11:04:35;;;;;;;0.80;0.30;;;;;;;34.80;16.95;98356.09;5042377;28;20041;-78
2022/05/26 11:07:37;;;;;;;0.22;0.20;;;;;;;34.70;15.38;98361.16;5032857;28;20190;-76
2022/05/26 11:10:53;;;;;;;1.08;0.52;;;;;;;35.83;14.68;98368.28;5042262;28;20033;-77
2022/05/26 11:14:03;;;;;;;0.90;0.20;;;;;;;36.43;14.69;98370.00;5031391;28;20045;-78
2022/05/26 11:20:01;;;;;;;0.35;0.17;;;;;;;35.92;16.74;98371.72;5040777;28;20076;-78
2022/05/26 11:22:27;;;;;;;0.20;0.20;;;;;;;35.01;15.36;98361.25;5040848;28;20045;-77
2022/05/26 11:24:56;;;;;;;2.08;0.30;;;;;;;35.17;17.28;98369.22;5039611;28;20508;-76
2022/05/26 11:27:42;;;;;;;1.35;0.65;;;;;;;35.26;15.92;98365.44;5025116;28;20380;-77
2022/05/26 11:36:07;;;;;;;0.88;0.20;;;;;;;35.38;16.46;98373.59;5037545;28;20048;-77
2022/05/26 11:38:46;;;;;;;0.28;0.25;;;;;;;36.23;16.21;98364.41;5040043;28;20021;-78
2022/05/26 11:41:27;;;;;;;1.65;0.28;;;;;;;36.04;17.39;98361.19;5041521;28;20044;-78
2022/05/26 11:44:10;;;;;;;0.38;0.30;;;;;;;35.74;15.36;98360.69;5039573;28;20060;-77
2022/05/26 11:46:43;;;;;;;0.32;0.20;;;;;;;35.07;18.59;98355.63;5037599;28;20404;-77
2022/05/26 11:49:11;;;;;;;2.30;0.30;;;;;;;34.70;15.87;98353.38;5040220;28;20435;-77
2022/05/26 11:51:39;;;;;;;1.55;0.17;;;;;;;34.55;17.91;98346.97;5041495;28;20036;-77
2022/05/26 11:54:07;;;;;;;0.73;0.30;;;;;;;34.68;19.84;98366.59;5044645;28;20112;-76
2022/05/26 11:56:33;;;;;;;3.00;0.30;;;;;;;35.19;15.67;98351.59;5039674;28;20033;-77
2022/05/26 11:59:26;;;;;;;0.30;0.10;;;;;;;35.55;16.67;98364.41;5037724;28;20524;-77
2022/05/26 12:02:07;;;;;;;0.52;0.25;;;;;;;34.39;16.40;98356.06;5045874;28;20053;-77
2022/05/26 12:04:41;;;;;;;0.30;0.20;;;;;;;34.09;16.57;98354.63;5053393;28;20028;-79
2022/05/26 12:07:22;;;;;;;2.25;0.47;;;;;;;33.97;16.54;98356.50;5034586;28;20021;-78
2022/05/26 12:09:53;;;;;;;0.20;0.15;;;;;;;34.12;17.22;98359.34;5052360;28;20457;-79
2022/05/26 12:12:22;;;;;;;0.32;0.30;;;;;;;33.59;17.78;98356.66;5052733;28;20025;-78
2022/05/26 12:14:50;;;;;;;1.45;0.20;;;;;;;34.23;16.98;98353.78;5050331;28;20037;-79
2022/05/26 12:17:50;;;;;;;0.35;0.35;;;;;;;34.27;17.63;98360.06;5044049;28;20095;-80
2022/05/26 12:20:16;;;;;;;1.88;0.35;;;;;;;34.89;17.68;98356.72;5048445;28;20040;-80
2022/05/26 12:22:51;;;;;;;0.68;0.20;;;;;;;33.33;19.17;98352.81;5045885;28;20045;-79
2022/05/26 12:25:33;;;;;;;1.45;0.30;;;;;;;33.80;19.46;98341.22;5047458;28;20104;-78
2022/05/26 12:28:14;;;;;;;1.42;0.20;;;;;;;33.80;18.31;98349.75;5050265;28;20052;-79
2022/05/26 12:30:46;;;;;;;0.47;0.20;;;;;;;34.52;17.34;98344.28;5048007;28;20037;-78
2022/05/26 12:33:21;;;;;;;0.30;0.30;;;;;;;34.75;17.27;98343.34;5048145;28;20035;-79